createdAt,value
2018-09-25T00:01:17.684Z,70.30
2018-09-25T00:05:26.777Z,70.90
2018-09-25T00:09:35.831Z,70.80
2018-09-25T00:13:44.726Z,72.10
2018-09-25T00:17:53.776Z,71.60
2018-09-25T00:22:02.655Z,71.90
2018-09-25T00:26:11.482Z,73.20
2018-09-25T00:30:20.441Z,71.80
2018-09-25T00:34:29.380Z,71.60
2018-09-25T00:38:38.380Z,71.50
2018-09-25T00:42:47.327Z,71.30
2018-09-25T00:46:56.427Z,71.40
2018-09-25T00:51:05.665Z,71.30
2018-09-25T00:55:14.708Z,70.40
2018-09-25T00:59:23.623Z,71.20
2018-09-25T01:03:32.588Z,71.20
2018-09-25T01:07:41.628Z,71.10
2018-09-25T01:11:50.600Z,71.40
2018-09-25T01:15:59.596Z,71.50
2018-09-25T01:20:08.702Z,72.00
2018-09-25T01:24:17.613Z,71.80
2018-09-25T01:28:36.575Z,71.70
2018-09-25T01:32:45.580Z,71.30
2018-09-25T01:36:54.652Z,71.30
2018-09-25T01:41:03.676Z,71.10
2018-09-25T01:45:12.663Z,71.10
2018-09-25T01:49:21.581Z,71.30
2018-09-25T01:53:30.526Z,71.20
2018-09-25T01:57:39.501Z,71.10
2018-09-25T02:01:48.583Z,71.20
2018-09-25T02:05:58.263Z,70.50
2018-09-25T02:10:07.369Z,71.00
2018-09-25T02:14:16.313Z,71.10
2018-09-25T02:18:25.200Z,71.30
2018-09-25T02:22:34.288Z,71.60
2018-09-25T02:26:43.114Z,71.20
2018-09-25T02:30:52.172Z,71.30
2018-09-25T02:35:01.321Z,71.20
2018-09-25T02:39:13.784Z,71.00
2018-09-25T02:43:22.780Z,71.00
2018-09-25T02:47:31.650Z,71.90
2018-09-25T02:51:40.521Z,71.40
2018-09-25T02:55:49.356Z,71.80
2018-09-25T02:59:58.242Z,71.50
2018-09-25T03:04:07.121Z,72.00
2018-09-25T03:08:16.092Z,72.00
2018-09-25T03:12:24.957Z,71.40
2018-09-25T03:16:33.937Z,71.40
2018-09-25T03:20:42.848Z,70.80
2018-09-25T03:24:51.714Z,70.40
2018-09-25T03:29:00.595Z,70.20
2018-09-25T03:33:09.558Z,70.40
2018-09-25T03:37:18.595Z,71.00
2018-09-25T03:41:27.544Z,70.90
2018-09-25T03:45:36.340Z,70.30
2018-09-25T03:49:45.380Z,71.20
2018-09-25T03:53:54.410Z,71.20
2018-09-25T03:58:03.338Z,71.40
2018-09-25T04:02:12.340Z,71.30
2018-09-25T04:06:21.277Z,71.30
2018-09-25T04:10:30.255Z,71.30
2018-09-25T04:14:39.377Z,71.50
2018-09-25T04:18:48.499Z,71.70
2018-09-25T04:22:57.412Z,71.50
2018-09-25T04:27:06.338Z,71.90
2018-09-25T04:31:15.403Z,72.00
2018-09-25T04:35:24.353Z,72.60
2018-09-25T04:39:33.519Z,72.70
2018-09-25T04:43:42.309Z,72.20
2018-09-25T04:47:51.321Z,72.30
2018-09-25T04:52:00.189Z,72.20
2018-09-25T04:56:09.241Z,72.80
2018-09-25T05:00:18.253Z,72.60
2018-09-25T05:04:27.188Z,72.30
2018-09-25T05:08:36.015Z,72.50
2018-09-25T05:12:44.952Z,72.80
2018-09-25T05:16:53.764Z,72.30
2018-09-25T05:21:02.723Z,72.30
2018-09-25T05:25:11.661Z,72.20
2018-09-25T05:29:20.732Z,72.10
2018-09-25T05:33:29.596Z,72.80
2018-09-25T05:37:38.615Z,71.90
2018-09-25T05:41:48.456Z,71.90
2018-09-25T05:45:57.781Z,71.80
2018-09-25T05:50:06.745Z,71.70
2018-09-25T05:54:15.596Z,71.70
2018-09-25T05:58:24.435Z,71.60
2018-09-25T06:02:33.521Z,71.00
2018-09-25T06:06:42.432Z,71.60
2018-09-25T06:10:51.369Z,71.60
2018-09-25T06:15:04.198Z,71.60
2018-09-25T06:19:13.137Z,71.70
2018-09-25T06:23:22.005Z,71.80
2018-09-25T06:27:31.116Z,72.20
2018-09-25T06:31:40.093Z,72.30
2018-09-25T06:35:48.900Z,72.40
2018-09-25T06:39:57.963Z,72.20
2018-09-25T06:44:06.952Z,71.60
2018-09-25T06:48:15.933Z,72.60
2018-09-25T06:52:24.776Z,73.00
2018-09-25T06:56:33.791Z,74.10
2018-09-25T07:00:42.620Z,72.80
2018-09-25T07:04:51.380Z,72.70
2018-09-25T07:09:00.267Z,73.60
2018-09-25T07:13:09.227Z,73.60
2018-09-25T07:17:18.164Z,73.20
2018-09-25T07:21:27.118Z,74.00
2018-09-25T07:25:36.156Z,73.00
2018-09-25T07:29:45.069Z,73.80
2018-09-25T07:33:54.039Z,73.80
2018-09-25T07:38:03.089Z,73.10
2018-09-25T07:42:12.205Z,73.80
2018-09-25T07:46:21.032Z,73.80
2018-09-25T07:50:30.100Z,73.30
2018-09-25T07:54:40.248Z,73.00
2018-09-25T07:58:49.237Z,73.00
2018-09-25T08:02:58.340Z,73.10
2018-09-25T08:07:07.306Z,72.90
2018-09-25T08:11:16.225Z,73.00
2018-09-25T08:15:25.367Z,72.70
2018-09-25T08:19:34.483Z,73.60
2018-09-25T08:23:43.349Z,73.60
2018-09-25T08:27:52.273Z,73.40
2018-09-25T08:32:01.374Z,73.20
2018-09-25T08:36:10.383Z,73.40
2018-09-25T08:40:19.437Z,73.40
2018-09-25T08:44:28.400Z,73.40
2018-09-25T08:48:37.400Z,73.50
2018-09-25T08:52:46.325Z,73.90
2018-09-25T08:56:55.106Z,73.60
2018-09-25T09:01:04.230Z,73.70
2018-09-25T09:05:13.220Z,73.30
2018-09-25T09:09:22.245Z,74.30
2018-09-25T09:13:31.265Z,73.30
2018-09-25T09:17:40.300Z,73.20
2018-09-25T09:21:49.359Z,73.20
2018-09-25T09:25:58.248Z,73.10
2018-09-25T09:30:07.340Z,73.00
2018-09-25T09:34:16.343Z,73.00
2018-09-25T09:38:25.356Z,73.00
2018-09-25T09:42:34.451Z,73.00
2018-09-25T09:46:43.422Z,73.00
2018-09-25T09:50:52.287Z,72.30
2018-09-25T09:55:01.111Z,73.10
2018-09-25T09:59:10.201Z,73.00
2018-09-25T10:03:19.180Z,72.90
2018-09-25T10:07:28.112Z,72.90
2018-09-25T10:11:37.041Z,72.90
2018-09-25T10:15:45.932Z,72.90
2018-09-25T10:19:54.816Z,72.90
2018-09-25T10:24:03.886Z,72.80
2018-09-25T10:28:13.017Z,72.70
2018-09-25T10:32:22.088Z,72.80
2018-09-25T10:36:31.052Z,72.60
2018-09-25T10:40:39.995Z,72.50
2018-09-25T10:44:49.076Z,72.00
2018-09-25T10:48:57.970Z,72.80
2018-09-25T10:53:06.952Z,72.80
2018-09-25T10:57:15.989Z,72.20
2018-09-25T11:01:24.872Z,72.20
2018-09-25T11:05:33.797Z,71.80
2018-09-25T11:09:42.591Z,71.90
2018-09-25T11:13:51.573Z,71.00
2018-09-25T11:18:00.652Z,71.70
2018-09-25T11:22:09.786Z,71.70
2018-09-25T11:26:18.902Z,71.90
2018-09-25T11:30:27.874Z,70.90
2018-09-25T11:34:36.989Z,70.50
2018-09-25T11:38:45.979Z,70.20
2018-09-25T11:42:55.086Z,71.50
2018-09-25T11:47:04.063Z,70.90
2018-09-25T11:51:13.175Z,71.00
2018-09-25T11:55:22.222Z,70.30
2018-09-25T11:59:31.447Z,69.50
2018-09-25T12:03:40.354Z,69.20
2018-09-25T12:07:49.400Z,67.90
2018-09-25T12:11:58.459Z,69.20
2018-09-25T12:16:07.498Z,68.00
2018-09-25T12:20:16.523Z,69.00
2018-09-25T12:24:25.504Z,67.20
2018-09-25T12:28:34.283Z,68.80
2018-09-25T12:32:43.458Z,68.30
2018-09-25T12:36:52.461Z,67.30
2018-09-25T12:41:01.483Z,67.90
2018-09-25T12:45:10.717Z,64.70
2018-09-25T12:49:19.701Z,65.50
2018-09-25T12:53:28.828Z,66.40
2018-09-25T12:57:38.020Z,67.70
2018-09-25T13:01:47.001Z,67.40
2018-09-25T13:05:55.896Z,66.60
2018-09-25T13:10:04.846Z,63.70
2018-09-25T13:14:13.874Z,66.00
2018-09-25T13:18:22.975Z,66.10
2018-09-25T13:22:31.887Z,66.30
2018-09-25T13:26:40.864Z,64.50
2018-09-25T13:30:50.045Z,66.10
2018-09-25T13:34:58.975Z,64.20
2018-09-25T13:39:07.957Z,62.70
2018-09-25T13:43:16.850Z,62.70
2018-09-25T13:47:25.727Z,62.80
2018-09-25T13:51:34.545Z,64.20
2018-09-25T13:55:43.452Z,63.90
2018-09-25T13:59:52.431Z,64.50
2018-09-25T14:04:01.244Z,64.10
2018-09-25T14:08:10.182Z,63.50
2018-09-25T14:12:19.238Z,63.20
2018-09-25T14:16:28.379Z,63.70
2018-09-25T14:20:37.223Z,62.40
2018-09-25T14:24:46.331Z,60.90
2018-09-25T14:28:55.462Z,62.90
2018-09-25T14:33:04.617Z,62.50
2018-09-25T14:37:13.695Z,60.00
2018-09-25T14:41:22.709Z,59.70
2018-09-25T14:45:31.687Z,62.50
2018-09-25T14:49:40.672Z,58.80
2018-09-25T14:53:49.667Z,62.30
2018-09-25T14:57:58.534Z,64.20
2018-09-25T15:02:07.471Z,60.70
2018-09-25T15:06:16.532Z,61.20
2018-09-25T15:10:25.649Z,61.20
2018-09-25T15:14:34.709Z,61.60
2018-09-25T15:18:43.712Z,59.90
2018-09-25T15:22:52.666Z,60.40
2018-09-25T15:27:01.537Z,60.40
2018-09-25T15:31:10.862Z,60.70
2018-09-25T15:35:20.040Z,59.70
2018-09-25T15:39:28.982Z,60.10
2018-09-25T15:43:38.061Z,61.00
2018-09-25T15:47:47.161Z,61.10
2018-09-25T15:51:56.025Z,61.20
2018-09-25T15:56:04.863Z,61.60
2018-09-25T16:00:13.909Z,62.00
2018-09-25T16:04:22.686Z,62.30
2018-09-25T16:08:31.695Z,62.60
2018-09-25T16:12:40.780Z,62.70
2018-09-25T16:16:49.617Z,63.00
2018-09-25T16:20:58.586Z,63.10
2018-09-25T16:25:07.546Z,63.30
2018-09-25T16:29:16.307Z,63.30
2018-09-25T16:33:25.404Z,63.30
2018-09-25T16:37:34.396Z,63.40
2018-09-25T16:41:43.268Z,63.60
2018-09-25T16:45:52.148Z,63.70
2018-09-25T16:50:01.000Z,63.80
2018-09-25T16:54:09.920Z,63.90
2018-09-25T16:58:18.701Z,64.00
2018-09-25T17:02:27.639Z,64.10
2018-09-25T17:06:36.632Z,64.20
2018-09-25T17:10:45.734Z,64.20
2018-09-25T17:14:54.656Z,64.20
2018-09-25T17:19:03.629Z,64.20
2018-09-25T17:23:12.771Z,64.20
2018-09-25T17:27:21.818Z,64.20
2018-09-25T17:31:30.656Z,64.30
2018-09-25T17:35:39.553Z,64.30
2018-09-25T17:39:48.594Z,64.30
2018-09-25T17:43:57.458Z,64.20
2018-09-25T17:48:06.669Z,64.20
2018-09-25T17:52:15.705Z,64.20
2018-09-25T17:56:24.577Z,64.20
2018-09-25T18:00:33.539Z,64.30
2018-09-25T18:04:42.606Z,64.30
2018-09-25T18:08:51.605Z,64.30
2018-09-25T18:13:00.544Z,64.70
2018-09-25T18:17:09.552Z,64.90
2018-09-25T18:21:18.543Z,65.00
2018-09-25T18:25:27.454Z,64.90
2018-09-25T18:29:36.513Z,65.00
2018-09-25T18:33:45.388Z,65.00
2018-09-25T18:37:54.243Z,65.90
2018-09-25T18:42:03.337Z,65.00
2018-09-25T18:46:12.472Z,65.00
2018-09-25T18:50:21.258Z,65.10
2018-09-25T18:54:30.117Z,65.20
2018-09-25T18:58:39.144Z,65.20
2018-09-25T19:02:48.153Z,65.30
2018-09-25T19:06:57.069Z,65.30
2018-09-25T19:11:05.951Z,65.30
2018-09-25T19:15:14.928Z,65.20
2018-09-25T19:19:23.699Z,65.20
2018-09-25T19:23:32.778Z,65.20
2018-09-25T19:27:41.683Z,65.30
2018-09-25T19:31:50.610Z,65.30
2018-09-25T19:35:59.585Z,65.30
2018-09-25T19:40:08.437Z,65.40
2018-09-25T19:44:17.267Z,65.40
2018-09-25T19:48:26.349Z,65.30
2018-09-25T19:52:35.338Z,66.20
2018-09-25T19:56:44.268Z,65.50
2018-09-25T20:00:53.421Z,65.50
2018-09-25T20:05:02.405Z,65.80
2018-09-25T20:09:13.837Z,65.80
2018-09-25T20:13:22.880Z,66.00
2018-09-25T20:17:31.923Z,66.80
2018-09-25T20:21:40.978Z,66.00
2018-09-25T20:25:49.932Z,66.10
2018-09-25T20:29:58.920Z,66.10
2018-09-25T20:34:07.925Z,66.20
2018-09-25T20:38:17.016Z,66.90
2018-09-25T20:42:26.042Z,66.30
2018-09-25T20:46:34.954Z,66.10
2018-09-25T20:50:43.880Z,66.30
2018-09-25T20:54:52.682Z,66.40
2018-09-25T20:59:01.612Z,66.50
2018-09-25T21:03:10.699Z,66.60
2018-09-25T21:07:19.449Z,66.80
2018-09-25T21:11:28.600Z,66.50
2018-09-25T21:15:37.679Z,66.40
2018-09-25T21:19:46.815Z,66.40
2018-09-25T21:23:55.895Z,66.40
2018-09-25T21:28:04.864Z,66.30
2018-09-25T21:32:13.807Z,66.40
2018-09-25T21:36:22.719Z,66.50
2018-09-25T21:40:31.583Z,66.40
2018-09-25T21:44:40.491Z,66.40
2018-09-25T21:48:49.352Z,66.40
2018-09-25T21:52:58.188Z,67.30
2018-09-25T21:57:07.212Z,67.00
2018-09-25T22:01:15.912Z,66.60
2018-09-25T22:05:24.891Z,66.60
2018-09-25T22:09:33.907Z,66.60
2018-09-25T22:13:42.772Z,67.40
2018-09-25T22:17:51.749Z,66.60
2018-09-25T22:22:00.637Z,66.60
2018-09-25T22:26:09.643Z,67.50
2018-09-25T22:30:18.514Z,66.90
2018-09-25T22:34:27.620Z,66.90
2018-09-25T22:38:36.620Z,66.90
2018-09-25T22:42:45.592Z,66.80
2018-09-25T22:46:54.672Z,66.80
2018-09-25T22:51:03.780Z,66.90
2018-09-25T22:55:12.816Z,67.00
2018-09-25T22:59:21.745Z,67.40
2018-09-25T23:03:30.752Z,67.30
2018-09-25T23:07:39.504Z,67.80
2018-09-25T23:11:48.575Z,67.20
2018-09-25T23:15:57.460Z,67.50
2018-09-25T23:20:06.404Z,68.00
2018-09-25T23:24:15.410Z,67.50
2018-09-25T23:28:24.347Z,67.70
2018-09-25T23:32:33.180Z,68.30
2018-09-25T23:36:42.024Z,67.50
2018-09-25T23:42:55.406Z,67.90
2018-09-25T23:47:11.111Z,67.70
2018-09-25T23:51:36.067Z,68.50
2018-09-25T23:55:50.936Z,67.90
